• Join FlightAware (Why Join?)
  • Login
  • US Flag 
06:48AM EST


 

Airport Tracker/Info


-or-


 

Live Flight TrackerFlight Track Log ✈ DAL6120 ✈ 01-Oct-2013 ✈ KDTW - KORF

Flight Track Log - Related Links

Times and Time Zones

All times are in EDT time to prevent confusion due to time zone crossing. See the DAL6120 flight status page for this flight to view local times or setup timezone preferences in your user account.

Time Position Orientation Groundspeed Altitude Reporting Facility
EDT Latitude Longitude Course Direction KTS MPH feet Rate Location/Type
02:10PM 42.2061 -83.3672 97° East 152 175 1,200  Level Cleveland Center
02:11PM 42.1461 -83.3839 192° South 213 245 3,400 1,680 Climbing Cleveland Center
02:12PM 42.1092 -83.3919 189° South 211 243 4,500 1,920 Climbing Cleveland Center
02:12PM 42.0758 -83.3714 155° Southeast 270 311 5,600 2,220 Climbing Cleveland Center
02:13PM 41.9897 -83.0171 98° East  Level Estimated
02:13PM 42.0689 -83.3217 101° East 276 318 6,800  Level Cleveland Center
02:14PM 41.9153 -82.9055 90° East  Level Estimated
02:14PM 42.0647 -83.1983 93° East 288 331 9,100  Level Cleveland Center
02:15PM 41.8408 -82.7942 97° East  Level Estimated
02:15PM 42.0694 -83.0803 87° East 318 366 10,400  Level Cleveland Center
02:16PM 42.0733 -82.9486 88° East 356 410 11,500 1,380 Climbing Cleveland Center
02:17PM 42.0781 -82.8128 87° East 364 419 13,300 1,380 Climbing Cleveland Center
02:18PM 42.0811 -82.6764 88° East 367 422 14,400 960 Climbing Cleveland Center
02:19PM 42.0858 -82.5336 87° East 382 440 15,400 1,080 Climbing Cleveland Center
02:20PM 42.0683 -82.3611 98° East 390 449 16,700 1,080 Climbing Cleveland Center
02:21PM 42.0461 -82.2147 102° East 399 459 17,700 960 Climbing Cleveland Center
02:22PM 42.0156 -82.0778 107° East 419 482 18,700 1,140 Climbing Cleveland Center
02:23PM 41.9139 -81.9617 140° Southeast 412 474 20,100 1,080 Climbing Cleveland Center
02:24PM 41.8178 -81.8706 145° Southeast 417 480 21,000 960 Climbing Cleveland Center
02:25PM 41.7208 -81.7778 144° Southeast 423 487 22,200 1,260 Climbing Cleveland Center
02:26PM 41.6261 -81.6875 145° Southeast 416 479 23,700 1,440 Climbing Cleveland Center
02:27PM 41.5336 -81.6003 145° Southeast 405 466 25,200 1,440 Climbing Cleveland Center
02:28PM 41.4422 -81.5142 145° Southeast 396 456 26,700 1,260 Climbing Cleveland Center
02:29PM 41.3408 -81.4306 148° Southeast 390 449 27,900 1,020 Climbing Cleveland Center
02:30PM 41.2425 -81.3872 162° South 392 451 28,900 720 Climbing Cleveland Center
02:31PM 41.1342 -81.3358 160° South 404 465 29,400 480 Climbing Cleveland Center
02:32PM 41.0211 -81.2819 160° South 420 483 29,900 480 Climbing Cleveland Center
02:33PM 40.8842 -81.2189 161° South 437 503 30,500 480 Climbing Cleveland Center
02:35PM 40.7658 -81.1617 160° South 445 512 31,000 240 Climbing Cleveland Center
02:36PM 40.6431 -81.1058 161° South 455 524 31,000  Level Cleveland Center
02:37PM 40.5244 -81.0492 160° South 459 528 31,000  Level Cleveland Center
02:38PM 40.4067 -80.9942 160° South 453 521 31,000  Level Cleveland Center
02:39PM 40.2897 -80.9397 160° South 452 520 31,000  Level Cleveland Center
02:40PM 40.1486 -80.8747 161° South 451 519 31,000  Level Cleveland Center
02:41PM 40.0317 -80.8206 160° South 450 518 31,000  Level Cleveland Center
02:42PM 39.9247 -80.7367 149° Southeast 453 521 31,000  Level Cleveland Center
02:43PM 39.8186 -80.6489 148° Southeast 455 524 31,000  Level Cleveland Center
02:44PM 39.7136 -80.5611 147° Southeast 453 521 31,000  Level Cleveland Center
02:45PM 39.5864 -80.4550 147° Southeast 453 521 31,000  Level Cleveland Center
02:46PM 39.4808 -80.3711 148° Southeast 449 517 31,000  Level Cleveland Center
02:47PM 39.3764 -80.2847 147° Southeast 448 516 31,000  Level Cleveland Center
02:48PM 39.2692 -80.1986 148° Southeast 453 521 31,000  Level Cleveland Center
02:49PM 39.1642 -80.1131 148° Southeast 450 518 31,000  Level Cleveland Center
02:50PM 39.0572 -80.0264 148° Southeast 454 522 31,000  Level Cleveland Center
02:51PM 38.9311 -79.9308 149° Southeast 447 514 31,000  Level Washington Center
02:52PM 38.8236 -79.8444 148° Southeast 447 514 31,000 -240 Level Washington Center
02:53PM 38.7203 -79.7614 148° Southeast 458 527 30,600 -600 Descending Washington Center
02:54PM 38.6247 -79.6842 148° Southeast 446 513 29,800 -960 Descending Washington Center
02:55PM 38.5214 -79.6014 148° Southeast 446 513 28,800 -1,080 Descending Washington Center
02:56PM 38.4156 -79.5164 148° Southeast 446 513 27,700 -900 Descending Washington Center
02:57PM 38.3081 -79.4286 147° Southeast 446 513 27,000 -360 Descending Washington Center
02:58PM 38.1900 -79.3353 148° Southeast 451 519 27,000  Level Washington Center
02:59PM 38.0861 -79.2508 147° Southeast 451 519 27,000 -60 Level Washington Center
03:00PM 37.9783 -79.1667 148° Southeast 451 519 26,900 -600 Descending Washington Center
03:01PM 37.8875 -79.0544 136° Southeast 457 526 25,900 -1,260 Descending Washington Center
03:02PM 37.8400 -78.8972 111° Southeast 455 524 24,400 -1,260 Descending Washington Center
03:03PM 37.8042 -78.7589 108° East 455 524 23,400 -1,020 Descending Washington Center
03:04PM 37.7619 -78.6100 110° East 455 524 22,400 -1,020 Descending Washington Center
03:05PM 37.7175 -78.4664 111° Southeast 450 518 21,400 -720 Descending Washington Center
03:06PM 37.6769 -78.3258 110° East 437 503 21,000 -240 Descending Washington Center
03:07PM 37.6403 -78.1961 110° East 431 496 21,000  Level Washington Center
03:08PM 37.5956 -78.0397 110° East 431 496 21,000  Level Washington Center
03:09PM 37.5736 -77.8925 101° East 426 490 21,000 -120 Level Washington Center
03:10PM 37.5492 -77.7425 102° East 426 490 20,800 -1,140 Descending Washington Center
03:11PM 37.5289 -77.5900 99° East 431 496 18,800 -2,100 Descending Washington Center
03:12PM 37.5081 -77.4506 101° East 418 481 16,800 -1,860 Descending Washington Center
03:13PM 37.4914 -77.3167 99° East 399 459 15,100 -1,380 Descending Washington Center
03:14PM 37.4828 -77.1806 95° East 394 453 14,100 -840 Descending Washington Center
03:14PM 37.4794 -77.1203 94° East 398 458 14,000 -180 Descending Washington Center
03:15PM 37.4758 -77.0650 95° East 400 460 14,000  Level Washington Center
03:15PM 37.4700 -77.0258 101° East 389 448 14,000  Level Washington Center
03:16PM 37.4631 -76.9183 95° East 394 453 14,000  Level Washington Center
03:16PM 37.4611 -76.9053 101° East 389 448 14,000  Level Washington Center
03:17PM 37.4522 -76.7664 95° East 394 453 14,000  Level Washington Center
03:18PM 37.4367 -76.6356 98° East 393 452 14,000  Level Washington Center
03:18PM 37.4347 -76.6275 107° East 394 453 14,000  Level Washington Center
03:19PM 37.4169 -76.4992 100° East 395 455 14,000  Level Washington Center
03:19PM 37.4169 -76.4939 90° East 394 453 14,000 -120 Level Washington Center
03:20PM 37.3822 -76.3786 111° Southeast 396 456 13,900 -240 Descending Washington Center
03:20PM 37.3803 -76.3656 101° East 384 442 13,800 -1,380 Descending Washington Center
03:21PM 37.3475 -76.2581 111° Southeast 349 402 12,500 -1,440 Descending Washington Center
03:21PM 37.3433 -76.2475 116° Southeast 378 435 12,400 -1,800 Descending Washington Center
03:22PM 37.3106 -76.1533 114° Southeast 328 377 10,700 -2,100 Descending Washington Center
03:22PM 37.3106 -76.1322 90° East 350 403 10,300 -1,440 Descending Washington Center
03:23PM 37.2817 -76.0539 115° Southeast 300 345 9,300 -1,440 Descending Washington Center
03:23PM 37.2797 -76.0356 98° East 314 361 8,900 -1,800 Descending Washington Center
03:24PM 37.2467 -75.9544 117° Southeast 282 325 7,300 -1,920 Descending Washington Center
03:24PM 37.2425 -75.9492 135° Southeast 293 337 7,100 -1,800 Descending Washington Center
03:25PM 37.1694 -75.9411 175° South 270 311 5,500 -1,500 Descending Washington Center
03:26PM 37.1192 -75.9878 217° Southwest 248 285 4,300 -900 Descending Washington Center
03:27PM 37.0628 -76.0394 216° Southwest 238 274 3,800 -840 Descending Washington Center
03:28PM 37.0144 -76.0861 218° Southwest 218 251 2,700 -1,140 Descending Washington Center
03:29PM 36.9683 -76.1300 217° Southwest 202 232 1,600 -960 Descending Washington Center
03:30PM 36.9350 -76.1636 219° Southwest 139 160 800 -840 Descending Washington Center